createdAt,value
2022-11-14T00:01:34.326Z,2.80
2022-11-14T00:04:03.096Z,2.30
2022-11-14T00:06:31.855Z,2.63
2022-11-14T00:09:00.772Z,3.87
2022-11-14T00:11:29.579Z,2.90
2022-11-14T00:13:58.449Z,2.97
2022-11-14T00:16:28.094Z,3.53
2022-11-14T00:18:58.618Z,3.50
2022-11-14T00:21:27.518Z,3.07
2022-11-14T00:23:56.390Z,4.30
2022-11-14T00:26:25.538Z,4.20
2022-11-14T00:28:55.676Z,4.93
2022-11-14T00:31:24.596Z,4.10
2022-11-14T00:33:53.648Z,4.40
2022-11-14T00:36:23.955Z,5.63
2022-11-14T00:38:55.705Z,4.20
2022-11-14T00:41:25.062Z,4.70
2022-11-14T00:43:53.936Z,4.30
2022-11-14T00:46:22.758Z,7.30
2022-11-14T00:48:51.749Z,4.40
2022-11-14T00:51:20.835Z,6.47
2022-11-14T00:53:51.118Z,7.03
2022-11-14T00:56:20.256Z,4.80
2022-11-14T00:58:49.267Z,4.73
2022-11-14T01:01:21.788Z,6.43
2022-11-14T01:03:51.754Z,5.10
2022-11-14T01:06:21.650Z,6.23
2022-11-14T01:08:53.865Z,5.30
2022-11-14T01:11:24.251Z,4.60
2022-11-14T01:13:53.127Z,4.90
2022-11-14T01:16:23.187Z,4.60
2022-11-14T01:18:52.209Z,5.50
2022-11-14T01:21:21.203Z,6.00
2022-11-14T01:23:50.740Z,9.50
2022-11-14T01:29:17.419Z,6.60
2022-11-14T01:31:46.276Z,5.13
2022-11-14T01:34:15.525Z,10.57
2022-11-14T01:36:44.457Z,4.70
2022-11-14T01:39:13.356Z,8.37
2022-11-14T01:41:44.338Z,15.67
2022-11-14T01:44:17.778Z,5.30
2022-11-14T01:46:52.419Z,6.60
2022-11-14T01:49:24.136Z,6.50
2022-11-14T01:51:59.864Z,6.23
2022-11-14T01:54:31.737Z,7.20
2022-11-14T01:57:04.216Z,5.67
2022-11-14T01:59:35.757Z,7.07
2022-11-14T02:02:15.538Z,8.80
2022-11-14T02:04:48.637Z,4.70
2022-11-14T02:07:18.226Z,6.93
2022-11-14T02:09:49.307Z,5.13
2022-11-14T02:15:07.897Z,8.13
2022-11-14T02:17:37.736Z,4.80
2022-11-14T02:20:33.382Z,4.77
2022-11-14T02:23:03.336Z,5.53
2022-11-14T02:25:34.296Z,9.90
2022-11-14T02:28:04.163Z,5.17
2022-11-14T02:30:32.979Z,4.47
2022-11-14T02:33:17.074Z,8.23
2022-11-14T02:35:47.466Z,8.07
2022-11-14T02:38:16.388Z,5.97
2022-11-14T02:40:45.997Z,10.03
2022-11-14T02:43:14.766Z,5.93
2022-11-14T02:45:43.679Z,5.37
2022-11-14T02:48:13.370Z,5.17
2022-11-14T02:50:43.139Z,7.13
2022-11-14T02:53:13.843Z,5.07
2022-11-14T02:55:42.831Z,4.83
2022-11-14T02:58:11.633Z,4.60
2022-11-14T03:01:05.999Z,9.97
2022-11-14T03:03:30.323Z,6.97
2022-11-14T03:06:01.855Z,5.07
2022-11-14T03:08:32.445Z,4.40
2022-11-14T03:11:06.439Z,4.83
2022-11-14T03:13:35.605Z,4.67
2022-11-14T03:16:08.841Z,5.07
2022-11-14T03:18:38.076Z,4.30
2022-11-14T03:21:08.200Z,7.27
2022-11-14T03:23:39.325Z,4.47
2022-11-14T03:26:10.896Z,6.13
2022-11-14T03:28:39.921Z,5.80
2022-11-14T03:31:10.177Z,6.30
2022-11-14T03:33:39.198Z,5.20
2022-11-14T03:36:08.807Z,5.47
2022-11-14T03:38:39.237Z,7.47
2022-11-14T03:41:10.906Z,4.20
2022-11-14T03:43:39.715Z,5.87
2022-11-14T03:46:09.345Z,7.20
2022-11-14T03:48:38.298Z,4.97
2022-11-14T03:51:07.628Z,5.47
2022-11-14T03:53:36.465Z,6.60
2022-11-14T03:56:07.554Z,4.60
2022-11-14T03:58:36.779Z,9.20
2022-11-14T04:01:05.791Z,5.60
2022-11-14T04:03:34.800Z,10.93
2022-11-14T04:06:03.838Z,4.23
2022-11-14T04:08:33.311Z,5.50
2022-11-14T04:11:02.549Z,4.43
2022-11-14T04:13:33.183Z,6.53
2022-11-14T04:16:02.309Z,4.97
2022-11-14T04:18:33.799Z,14.33
2022-11-14T04:21:02.637Z,17.20
2022-11-14T04:23:31.467Z,7.67
2022-11-14T04:26:00.267Z,5.80
2022-11-14T04:28:29.412Z,5.47
2022-11-14T04:31:00.788Z,6.23
2022-11-14T04:33:29.825Z,4.10
2022-11-14T04:35:58.627Z,4.33
2022-11-14T04:38:27.713Z,3.60
2022-11-14T04:40:57.572Z,5.50
2022-11-14T04:43:26.540Z,4.80
2022-11-14T04:45:55.396Z,4.83
2022-11-14T04:48:26.317Z,4.23
2022-11-14T04:50:55.127Z,4.83
2022-11-14T04:53:23.985Z,5.50
2022-11-14T04:55:52.707Z,4.73
2022-11-14T04:58:22.222Z,4.00
2022-11-14T05:00:51.871Z,4.20
2022-11-14T05:03:20.831Z,3.53
2022-11-14T05:05:51.701Z,2.93
2022-11-14T05:08:20.577Z,3.97
2022-11-14T05:10:49.381Z,5.53
2022-11-14T05:13:18.229Z,4.53
2022-11-14T05:15:47.154Z,5.00
2022-11-14T05:18:17.279Z,6.13
2022-11-14T05:20:46.132Z,8.27
2022-11-14T05:23:21.747Z,8.93
2022-11-14T05:26:01.301Z,8.00
2022-11-14T05:28:30.660Z,11.23
2022-11-14T05:31:03.730Z,9.67
2022-11-14T05:33:33.130Z,9.37
2022-11-14T05:36:05.153Z,10.13
2022-11-14T05:38:35.703Z,7.30
2022-11-14T05:41:08.585Z,8.13
2022-11-14T05:43:37.483Z,6.30
2022-11-14T05:46:08.696Z,5.57
2022-11-14T05:48:38.165Z,6.13
2022-11-14T05:51:08.459Z,5.30
2022-11-14T05:53:38.770Z,6.97
2022-11-14T05:56:09.325Z,6.20
2022-11-14T05:58:38.795Z,5.43
2022-11-14T06:01:09.730Z,4.63
2022-11-14T06:03:40.818Z,3.90
2022-11-14T06:06:12.449Z,5.73
2022-11-14T06:08:43.240Z,4.37
2022-11-14T06:11:14.487Z,4.70
2022-11-14T06:13:43.448Z,4.37
2022-11-14T06:16:13.875Z,9.40
2022-11-14T06:18:43.051Z,11.60
2022-11-14T06:21:14.428Z,13.23
2022-11-14T06:23:44.910Z,4.93
2022-11-14T06:26:21.898Z,5.40
2022-11-14T06:28:51.714Z,5.17
2022-11-14T06:31:21.570Z,32.17
2022-11-14T06:33:50.938Z,6.10
2022-11-14T06:36:19.888Z,8.10
2022-11-14T06:38:50.144Z,8.20
2022-11-14T06:41:21.057Z,9.80
2022-11-14T06:43:53.206Z,14.57
2022-11-14T06:46:23.537Z,11.50
2022-11-14T06:48:52.767Z,25.23
2022-11-14T06:51:21.720Z,12.17
2022-11-14T06:53:52.606Z,11.43
2022-11-14T06:56:21.838Z,8.30
2022-11-14T06:58:51.706Z,8.70
2022-11-14T07:01:22.755Z,9.53
2022-11-14T07:03:51.836Z,12.80
2022-11-14T07:06:22.796Z,11.40
2022-11-14T07:08:54.447Z,6.87
2022-11-14T07:11:26.750Z,6.27
2022-11-14T07:13:57.869Z,6.57
2022-11-14T07:16:29.759Z,5.90
2022-11-14T07:18:59.189Z,5.80
2022-11-14T07:21:28.980Z,8.10
2022-11-14T07:23:59.605Z,16.73
2022-11-14T07:26:28.613Z,19.53
2022-11-14T07:29:02.118Z,14.80
2022-11-14T07:31:32.032Z,18.50
2022-11-14T07:34:00.813Z,30.83
2022-11-14T07:36:29.854Z,26.60
2022-11-14T07:39:00.364Z,9.07
2022-11-14T07:41:29.426Z,7.30
2022-11-14T07:43:58.344Z,7.97
2022-11-14T07:46:27.184Z,7.00
2022-11-14T07:48:57.193Z,5.60
2022-11-14T07:51:25.977Z,19.27
2022-11-14T07:53:55.093Z,6.13
2022-11-14T07:56:26.323Z,5.90
2022-11-14T07:58:55.285Z,7.00
2022-11-14T08:01:24.554Z,27.37
2022-11-14T08:03:54.033Z,48.50
2022-11-14T08:06:22.901Z,36.13
2022-11-14T08:08:51.823Z,60.43
2022-11-14T08:11:41.574Z,69.67
2022-11-14T08:14:12.085Z,73.80
2022-11-14T08:16:41.007Z,85.13
2022-11-14T08:19:10.023Z,63.40
2022-11-14T08:21:38.872Z,89.40
2022-11-14T08:24:08.411Z,95.87
2022-11-14T08:26:37.460Z,91.30
2022-11-14T08:29:06.482Z,107.63
2022-11-14T08:31:36.897Z,65.13
2022-11-14T08:34:05.714Z,76.70
2022-11-14T08:36:34.593Z,104.83
2022-11-14T08:39:03.461Z,77.50
2022-11-14T08:41:32.395Z,60.63
2022-11-14T08:44:01.254Z,52.77
2022-11-14T08:46:30.684Z,40.33
2022-11-14T08:49:03.783Z,38.00
2022-11-14T08:51:32.629Z,43.03
2022-11-14T08:54:01.484Z,58.03
2022-11-14T08:56:30.381Z,51.17
2022-11-14T08:59:00.009Z,45.00
2022-11-14T09:01:28.831Z,35.13
2022-11-14T09:03:59.948Z,46.87
2022-11-14T09:06:30.608Z,21.93
2022-11-14T09:09:00.006Z,17.60
2022-11-14T09:11:28.848Z,15.33
2022-11-14T09:13:57.767Z,9.33
2022-11-14T09:16:26.616Z,11.10
2022-11-14T09:18:55.586Z,12.40
2022-11-14T09:21:24.473Z,7.77
2022-11-14T09:24:00.409Z,6.00
2022-11-14T09:26:30.426Z,15.43
2022-11-14T09:28:59.367Z,10.47
2022-11-14T09:31:28.174Z,7.33
2022-11-14T09:33:56.977Z,49.30
2022-11-14T09:36:25.987Z,10.37
2022-11-14T09:38:56.339Z,9.73
2022-11-14T09:41:26.957Z,18.90
2022-11-14T09:44:20.472Z,32.13
2022-11-14T09:46:55.652Z,6.60
2022-11-14T09:49:31.552Z,16.33
2022-11-14T09:52:07.178Z,10.67
2022-11-14T09:54:46.360Z,6.17
2022-11-14T09:57:18.313Z,6.20
2022-11-14T09:59:48.262Z,9.53
2022-11-14T10:02:29.177Z,18.77
2022-11-14T10:05:11.100Z,14.13
2022-11-14T10:07:53.068Z,6.47
2022-11-14T10:10:38.808Z,7.90
2022-11-14T10:13:19.340Z,6.80
2022-11-14T10:15:54.342Z,12.87
2022-11-14T10:18:46.373Z,13.17
2022-11-14T10:21:31.690Z,8.77
2022-11-14T10:24:11.742Z,12.20
2022-11-14T10:26:55.121Z,7.37
2022-11-14T10:29:55.830Z,8.20
2022-11-14T10:32:36.601Z,7.87
2022-11-14T10:35:13.521Z,10.13
2022-11-14T10:37:48.291Z,6.60
2022-11-14T10:40:20.202Z,6.30
2022-11-14T10:42:56.180Z,6.23
2022-11-14T10:45:29.904Z,5.40
2022-11-14T10:48:01.812Z,5.10
2022-11-14T10:50:39.494Z,9.37
2022-11-14T10:53:19.636Z,18.23
2022-11-14T10:56:08.192Z,4.23
2022-11-14T10:58:47.978Z,4.83
2022-11-14T11:01:39.960Z,10.27
2022-11-14T11:04:20.977Z,12.20
2022-11-14T11:06:50.617Z,13.97
2022-11-14T11:09:44.833Z,5.63
2022-11-14T11:12:18.735Z,12.17
2022-11-14T11:14:50.839Z,2.97
2022-11-14T11:17:23.170Z,9.20
2022-11-14T11:19:52.683Z,4.87
2022-11-14T11:22:38.240Z,6.03
2022-11-14T11:25:25.521Z,3.53
2022-11-14T11:28:12.698Z,3.97
2022-11-14T11:30:55.826Z,2.80
2022-11-14T11:33:27.639Z,2.20
2022-11-14T11:35:59.325Z,1.90
2022-11-14T11:38:30.452Z,2.40
2022-11-14T11:41:15.440Z,1.90
2022-11-14T11:43:58.874Z,2.13
2022-11-14T11:46:39.043Z,1.87
2022-11-14T11:49:15.507Z,1.70
2022-11-14T11:51:47.144Z,1.83
2022-11-14T11:54:19.480Z,2.20
2022-11-14T11:56:52.414Z,1.80
2022-11-14T11:59:30.510Z,1.90
2022-11-14T12:02:01.424Z,1.90
2022-11-14T12:04:31.543Z,2.13
2022-11-14T12:07:06.417Z,2.13
2022-11-14T12:10:09.261Z,2.40
2022-11-14T12:12:54.247Z,2.00
2022-11-14T12:15:29.859Z,2.10
2022-11-14T12:18:30.799Z,2.40
2022-11-14T12:21:14.003Z,2.00
2022-11-14T12:24:19.646Z,1.90
2022-11-14T12:27:02.525Z,2.47
2022-11-14T12:30:08.989Z,2.37
2022-11-14T12:32:43.471Z,2.10
2022-11-14T12:35:21.807Z,1.97
2022-11-14T12:37:55.904Z,2.50
2022-11-14T12:40:33.689Z,2.70
2022-11-14T12:43:04.212Z,2.83
2022-11-14T12:46:00.165Z,2.07
2022-11-14T12:48:33.611Z,2.30
2022-11-14T12:51:05.652Z,2.30
2022-11-14T12:53:45.181Z,2.00
2022-11-14T12:56:51.198Z,2.10
2022-11-14T12:59:38.958Z,2.07
2022-11-14T13:02:27.339Z,2.50
2022-11-14T13:05:16.162Z,2.00
2022-11-14T13:07:59.132Z,2.30
2022-11-14T13:10:33.840Z,1.90
2022-11-14T13:13:28.244Z,2.03
2022-11-14T13:16:16.331Z,1.97
2022-11-14T13:19:14.513Z,2.00
2022-11-14T13:22:21.562Z,1.83
2022-11-14T13:25:25.633Z,2.03
2022-11-14T13:28:19.006Z,2.17
2022-11-14T13:31:10.000Z,2.40
2022-11-14T13:33:46.335Z,2.20
2022-11-14T13:36:28.386Z,2.40
2022-11-14T13:39:19.269Z,2.40
2022-11-14T13:42:20.209Z,2.40
2022-11-14T13:45:10.162Z,3.10
2022-11-14T13:48:16.814Z,2.50
2022-11-14T13:50:52.432Z,1.87
2022-11-14T13:53:24.807Z,2.50
2022-11-14T13:56:02.270Z,2.70
2022-11-14T13:58:54.614Z,2.60
2022-11-14T14:01:38.379Z,2.93
2022-11-14T14:04:23.997Z,3.20
2022-11-14T14:07:02.849Z,2.90
2022-11-14T14:09:40.614Z,2.70
2022-11-14T14:12:25.811Z,2.70
2022-11-14T14:15:16.015Z,2.83
2022-11-14T14:17:55.480Z,2.67
2022-11-14T14:20:34.553Z,2.80
2022-11-14T14:23:15.884Z,2.60
2022-11-14T14:25:52.743Z,2.50
2022-11-14T14:28:28.653Z,2.50
2022-11-14T14:31:05.919Z,2.30
2022-11-14T14:33:43.931Z,2.80
2022-11-14T14:36:20.492Z,2.50
2022-11-14T14:38:49.995Z,2.90
2022-11-14T14:41:21.714Z,3.00
2022-11-14T14:43:56.975Z,2.63
2022-11-14T14:46:33.834Z,2.90
2022-11-14T14:49:06.434Z,3.20
2022-11-14T14:51:37.046Z,3.40
2022-11-14T14:54:08.173Z,3.60
2022-11-14T14:56:37.660Z,3.73
2022-11-14T14:59:19.095Z,3.50
2022-11-14T15:01:48.066Z,3.03
2022-11-14T15:04:20.504Z,3.37
2022-11-14T15:06:49.868Z,3.67
2022-11-14T15:09:22.263Z,3.80
2022-11-14T15:11:53.772Z,3.90
2022-11-14T15:14:25.873Z,3.60
2022-11-14T15:16:57.794Z,3.87
2022-11-14T15:19:42.223Z,3.50
2022-11-14T15:22:25.852Z,3.53
2022-11-14T15:28:33.621Z,3.83
2022-11-14T15:31:04.458Z,3.93
2022-11-14T15:33:35.379Z,3.80
2022-11-14T15:36:11.140Z,4.03
2022-11-14T15:38:44.786Z,3.70
2022-11-14T15:41:26.462Z,4.37
2022-11-14T15:44:02.102Z,3.93
2022-11-14T15:46:45.424Z,3.70
2022-11-14T15:49:22.888Z,3.90
2022-11-14T15:51:58.137Z,4.30
2022-11-14T15:54:30.238Z,3.83
2022-11-14T15:57:01.605Z,4.10
2022-11-14T15:59:31.903Z,2.87
2022-11-14T16:02:06.814Z,3.27
2022-11-14T16:04:39.760Z,3.33
2022-11-14T16:07:14.825Z,3.37
2022-11-14T16:09:43.856Z,4.30
2022-11-14T16:12:12.768Z,3.50
2022-11-14T16:14:41.769Z,4.10
2022-11-14T16:17:15.293Z,3.73
2022-11-14T16:19:44.819Z,3.47
2022-11-14T16:22:18.506Z,4.60
2022-11-14T16:24:47.756Z,4.67
2022-11-14T16:27:16.606Z,4.73
2022-11-14T16:29:46.021Z,5.20
2022-11-14T16:32:15.199Z,5.17
2022-11-14T16:34:44.179Z,4.97
2022-11-14T16:37:16.331Z,4.43
2022-11-14T16:39:45.829Z,5.00
2022-11-14T16:42:15.136Z,5.20
2022-11-14T16:44:47.907Z,5.30
2022-11-14T16:47:20.733Z,5.20
2022-11-14T16:49:49.857Z,5.30
2022-11-14T16:52:21.750Z,5.63
2022-11-14T16:54:50.771Z,6.07
2022-11-14T16:57:19.567Z,5.60
2022-11-14T16:59:48.629Z,5.37
2022-11-14T17:02:18.948Z,5.17
2022-11-14T17:04:47.894Z,5.40
2022-11-14T17:07:22.613Z,5.80
2022-11-14T17:09:53.650Z,6.07
2022-11-14T17:12:25.720Z,5.67
2022-11-14T17:14:55.344Z,5.60
2022-11-14T17:17:24.868Z,5.87
2022-11-14T17:19:53.919Z,5.73
2022-11-14T17:22:22.807Z,6.10
2022-11-14T17:24:53.629Z,5.53
2022-11-14T17:27:31.905Z,6.13
2022-11-14T17:30:01.312Z,6.00
2022-11-14T17:32:31.980Z,5.73
2022-11-14T17:35:00.936Z,6.50
2022-11-14T17:52:08.137Z,6.93
2022-11-14T17:54:38.196Z,6.67
2022-11-14T17:57:07.014Z,6.33
2022-11-14T17:59:37.312Z,5.83
2022-11-14T18:02:06.620Z,5.93
2022-11-14T18:04:35.853Z,6.40
2022-11-14T18:07:06.362Z,6.80
2022-11-14T18:09:36.376Z,8.10
2022-11-14T18:12:06.026Z,9.83
2022-11-14T18:14:36.223Z,9.53
2022-11-14T18:17:12.682Z,9.30
2022-11-14T18:19:43.527Z,8.10
2022-11-14T18:22:13.959Z,7.30
2022-11-14T18:24:47.937Z,7.93
2022-11-14T18:27:16.839Z,7.60
2022-11-14T18:29:46.440Z,7.43
2022-11-14T18:32:15.906Z,7.03
2022-11-14T18:34:45.799Z,7.20
2022-11-14T18:37:16.555Z,7.90
2022-11-14T18:39:46.032Z,6.60
2022-11-14T18:42:15.354Z,7.10
2022-11-14T18:44:44.543Z,6.60
2022-11-14T18:47:13.973Z,7.53
2022-11-14T18:49:44.553Z,7.70
2022-11-14T18:52:17.599Z,7.87
2022-11-14T18:54:48.611Z,7.50
2022-11-14T18:57:18.171Z,7.67
2022-11-14T18:59:48.217Z,7.80
2022-11-14T19:02:18.921Z,7.60
2022-11-14T19:04:48.234Z,7.77
2022-11-14T19:07:17.808Z,8.63
2022-11-14T19:09:48.585Z,8.23
2022-11-14T19:12:22.547Z,8.27
2022-11-14T19:14:53.596Z,8.67
2022-11-14T19:17:23.282Z,8.63
2022-11-14T19:19:54.529Z,8.27
2022-11-14T19:22:24.510Z,8.23
2022-11-14T19:24:55.153Z,8.63
2022-11-14T19:27:24.741Z,9.63
2022-11-14T19:29:54.079Z,24.00
2022-11-14T19:32:23.346Z,26.03
2022-11-14T19:34:52.322Z,16.13
2022-11-14T19:37:21.196Z,15.60
2022-11-14T19:39:56.161Z,11.80
2022-11-14T19:42:27.226Z,12.63
2022-11-14T19:44:57.098Z,11.30
2022-11-14T19:47:26.672Z,9.20
2022-11-14T19:49:55.778Z,10.63
2022-11-14T19:52:25.189Z,10.93
2022-11-14T19:54:55.617Z,9.43
2022-11-14T19:57:24.853Z,10.70
2022-11-14T19:59:55.439Z,9.77
2022-11-14T20:02:26.364Z,9.87
2022-11-14T20:04:55.777Z,10.93
2022-11-14T20:07:25.227Z,10.07
2022-11-14T20:09:56.012Z,11.27
2022-11-14T20:12:25.252Z,9.73
2022-11-14T20:14:54.298Z,10.43
2022-11-14T20:17:24.168Z,9.97
2022-11-14T20:19:53.494Z,9.83
2022-11-14T20:22:25.721Z,10.43
2022-11-14T20:24:56.704Z,10.50
2022-11-14T20:27:25.564Z,10.10
2022-11-14T20:29:54.957Z,10.00
2022-11-14T20:32:24.496Z,10.33
2022-11-14T20:34:54.875Z,12.67
2022-11-14T20:37:24.537Z,10.90
2022-11-14T20:39:53.706Z,11.40
2022-11-14T20:42:24.474Z,10.37
2022-11-14T20:44:53.776Z,10.27
2022-11-14T20:47:23.151Z,54.30
2022-11-14T20:49:52.328Z,35.40
2022-11-14T20:52:22.022Z,11.30
2022-11-14T20:54:51.023Z,9.67
2022-11-14T20:57:20.422Z,10.70
2022-11-14T20:59:51.065Z,11.17
2022-11-14T21:02:21.025Z,30.13
2022-11-14T21:04:50.202Z,11.70
2022-11-14T21:07:19.157Z,15.77
2022-11-14T21:09:48.010Z,11.03
2022-11-14T21:12:16.998Z,13.17
2022-11-14T21:14:45.901Z,11.83
2022-11-14T21:17:16.164Z,14.63
2022-11-14T21:19:45.249Z,19.60
2022-11-14T21:22:14.177Z,16.60
2022-11-14T21:24:44.092Z,21.80
2022-11-14T21:27:13.499Z,16.80
2022-11-14T21:29:42.442Z,11.63
2022-11-14T21:32:11.302Z,13.00
2022-11-14T21:34:41.545Z,107.03
2022-11-14T21:37:10.651Z,18.63
2022-11-14T21:39:39.592Z,16.87
2022-11-14T21:42:08.619Z,18.83
2022-11-14T21:44:37.542Z,12.70
2022-11-14T21:47:06.551Z,16.47
2022-11-14T21:49:35.840Z,13.63
2022-11-14T21:52:06.590Z,12.30
2022-11-14T21:54:35.912Z,13.37
2022-11-14T21:57:09.805Z,15.50
2022-11-14T21:59:39.766Z,12.43
2022-11-14T22:02:31.450Z,23.53
2022-11-14T22:05:09.976Z,16.23
2022-11-14T22:07:43.470Z,11.37
2022-11-14T22:10:13.114Z,14.30
2022-11-14T22:12:41.956Z,26.07
2022-11-14T22:15:11.355Z,19.80
2022-11-14T22:17:41.041Z,21.27
2022-11-14T22:20:11.458Z,63.40
2022-11-14T22:22:41.790Z,15.37
2022-11-14T22:25:11.247Z,15.97
2022-11-14T22:27:39.999Z,30.80
2022-11-14T22:30:10.077Z,14.10
2022-11-14T22:32:38.918Z,11.20
2022-11-14T22:35:08.540Z,16.93
2022-11-14T22:37:38.168Z,15.37
2022-11-14T22:40:11.079Z,12.27
2022-11-14T22:42:39.998Z,12.70
2022-11-14T22:45:10.325Z,11.67
2022-11-14T22:47:39.426Z,13.17
2022-11-14T22:50:09.528Z,15.40
2022-11-14T22:52:38.460Z,11.63
2022-11-14T22:55:15.193Z,12.63
2022-11-14T22:57:46.688Z,11.50
2022-11-14T23:00:18.250Z,11.57
2022-11-14T23:02:47.050Z,11.47
2022-11-14T23:05:15.989Z,11.07
2022-11-14T23:07:45.400Z,11.23
2022-11-14T23:10:15.857Z,11.07
2022-11-14T23:12:44.612Z,11.37
2022-11-14T23:15:13.433Z,11.03
2022-11-14T23:17:42.202Z,15.87
2022-11-14T23:20:16.201Z,12.07
2022-11-14T23:22:45.381Z,10.47
2022-11-14T23:25:15.783Z,11.00
2022-11-14T23:27:44.624Z,12.33
2022-11-14T23:30:14.226Z,10.83
2022-11-14T23:32:43.057Z,10.60
2022-11-14T23:35:12.533Z,12.70
2022-11-14T23:37:41.362Z,10.83
2022-11-14T23:40:11.437Z,11.93
2022-11-14T23:42:41.732Z,10.93
2022-11-14T23:45:11.713Z,10.87
2022-11-14T23:47:40.644Z,10.43
2022-11-14T23:50:10.425Z,10.87
2022-11-14T23:52:39.344Z,10.87
2022-11-14T23:55:08.566Z,11.43
2022-11-14T23:57:37.385Z,11.30
